Time;durP1;ratioP1;P1;durP2;ratioP2;P2;SDS_P1;SDS_P2;PMS_P1;PMS_P2;Temp;Humidity;BMP_temperature;BMP_pressure;BME280_temperature;BME280_humidity;BME280_pressure;Samples;Min_cycle;Max_cycle;Signal;HPM_P1;HPM_P2
2023/08/24 00:04:05;;;;;;;6.17;5.67;;;23.60;96.60;;;;;;10410756;28;20232;-79
2023/08/24 00:09:08;;;;;;;6.80;6.30;;;23.60;96.80;;;;;;10428241;28;20850;-79
2023/08/24 00:14:11;;;;;;;7.27;6.03;;;23.60;97.00;;;;;;10431818;28;20234;-80
2023/08/24 00:19:13;;;;;;;6.47;5.90;;;23.50;96.60;;;;;;10431445;28;20225;-79
2023/08/24 00:24:16;;;;;;;7.00;6.00;;;23.50;97.00;;;;;;10425408;28;20235;-79
2023/08/24 00:29:18;;;;;;;6.50;6.00;;;23.50;97.10;;;;;;10430253;28;20907;-79
2023/08/24 00:34:20;;;;;;;6.13;5.73;;;23.50;97.10;;;;;;10414850;28;20339;-80
2023/08/24 00:39:24;;;;;;;6.40;5.90;;;23.40;97.20;;;;;;10432142;28;20263;-79
2023/08/24 00:44:26;;;;;;;6.57;5.97;;;23.40;97.60;;;;;;10398901;28;20257;-79
2023/08/24 00:49:28;;;;;;;6.60;6.20;;;23.40;97.00;;;;;;10427633;28;20355;-78
2023/08/24 00:54:32;;;;;;;5.90;5.50;;;23.30;97.50;;;;;;10428225;28;20198;-79
2023/08/24 00:59:35;;;;;;;6.73;6.17;;;23.30;97.70;;;;;;10423447;28;20229;-79
2023/08/24 01:04:37;;;;;;;6.90;6.30;;;23.30;97.50;;;;;;10422998;28;20218;-78
2023/08/24 01:09:42;;;;;;;6.37;5.77;;;23.30;97.50;;;;;;10428588;28;20321;-78
2023/08/24 01:14:52;;;;;;;6.63;6.17;;;23.20;97.70;;;;;;10393309;28;20205;-79
2023/08/24 01:19:55;;;;;;;6.70;6.10;;;23.20;97.70;;;;;;10402140;28;20635;-79
2023/08/24 01:25:07;;;;;;;6.67;6.17;;;23.10;97.80;;;;;;10426218;28;20225;-78
2023/08/24 01:30:11;;;;;;;6.53;6.03;;;23.10;98.00;;;;;;10415151;28;20314;-79
2023/08/24 01:35:14;;;;;;;7.13;6.53;;;23.10;97.90;;;;;;10409139;28;20241;-79
2023/08/24 01:40:21;;;;;;;6.70;6.20;;;23.10;98.50;;;;;;10432769;28;20816;-80
2023/08/24 01:45:29;;;;;;;6.90;6.30;;;23.00;98.00;;;;;;10413676;28;20230;-79
2023/08/24 01:50:32;;;;;;;6.20;5.70;;;23.00;98.10;;;;;;10427932;28;20696;-79
2023/08/24 01:55:34;;;;;;;6.07;5.57;;;23.00;98.30;;;;;;10413571;28;20278;-79
2023/08/24 02:00:38;;;;;;;6.87;6.37;;;23.00;98.30;;;;;;10396385;28;20249;-79
2023/08/24 02:05:40;;;;;;;7.30;6.67;;;23.00;98.30;;;;;;10433577;28;20705;-78
2023/08/24 02:10:42;;;;;;;6.57;6.07;;;22.90;98.30;;;;;;10433116;28;21082;-79
2023/08/24 02:15:45;;;;;;;6.20;5.90;;;22.90;98.50;;;;;;10411267;28;20213;-78
2023/08/24 02:20:47;;;;;;;7.43;6.93;;;22.80;98.50;;;;;;10413878;28;21198;-79
2023/08/24 02:25:49;;;;;;;7.73;7.20;;;22.80;98.40;;;;;;10407899;28;20217;-79
2023/08/24 02:30:53;;;;;;;8.03;7.27;;;22.80;98.50;;;;;;10413760;28;20237;-79
2023/08/24 02:35:56;;;;;;;7.07;6.60;;;22.70;98.70;;;;;;10398728;28;20617;-79
2023/08/24 02:41:05;;;;;;;7.73;7.20;;;22.70;98.80;;;;;;10402171;28;20234;-79
2023/08/24 02:46:10;;;;;;;7.00;6.50;;;22.70;98.70;;;;;;10434022;28;20226;-79
2023/08/24 02:51:12;;;;;;;7.43;6.80;;;22.60;99.00;;;;;;10413023;28;20256;-79
2023/08/24 02:56:14;;;;;;;8.27;7.60;;;22.60;99.30;;;;;;10424873;28;20198;-78
2023/08/24 03:01:18;;;;;;;7.30;6.80;;;22.70;99.40;;;;;;10412350;28;20250;-78
2023/08/24 03:06:20;;;;;;;7.10;6.60;;;22.70;99.30;;;;;;10413440;28;20268;-78
2023/08/24 03:11:22;;;;;;;8.17;6.77;;;22.70;99.20;;;;;;10418197;28;20317;-78
2023/08/24 03:16:25;;;;;;;7.40;6.90;;;22.70;99.20;;;;;;10407083;28;20251;-79
2023/08/24 03:21:30;;;;;;;7.73;7.10;;;22.70;99.30;;;;;;10405740;28;20658;-78
2023/08/24 03:26:32;;;;;;;7.40;6.90;;;22.70;99.50;;;;;;10407078;28;20434;-79
2023/08/24 03:31:36;;;;;;;7.63;7.03;;;22.70;99.70;;;;;;10412985;28;20206;-81
2023/08/24 03:36:38;;;;;;;8.13;7.43;;;22.60;99.60;;;;;;10411070;28;20205;-78
2023/08/24 03:41:40;;;;;;;8.57;7.87;;;22.60;99.50;;;;;;10414578;28;20686;-78
2023/08/24 03:46:44;;;;;;;8.80;8.10;;;22.60;99.60;;;;;;10407766;28;20568;-78
2023/08/24 03:51:46;;;;;;;7.37;6.67;;;22.50;99.70;;;;;;10407705;28;20295;-78
2023/08/24 03:56:48;;;;;;;8.23;7.37;;;22.60;99.90;;;;;;10427440;28;20228;-78
2023/08/24 04:01:51;;;;;;;9.30;7.70;;;22.60;99.60;;;;;;10429886;28;20209;-79
2023/08/24 04:06:54;;;;;;;6.90;6.43;;;22.60;99.90;;;;;;10414525;28;21108;-79
2023/08/24 04:11:57;;;;;;;7.90;7.20;;;22.60;99.80;;;;;;10411380;28;20565;-79
2023/08/24 04:17:01;;;;;;;7.67;6.93;;;22.60;99.90;;;;;;10427109;28;20222;-79
2023/08/24 04:22:03;;;;;;;8.60;7.97;;;22.70;99.90;;;;;;10415475;28;20692;-78
2023/08/24 04:27:06;;;;;;;8.07;7.43;;;22.70;99.90;;;;;;10427668;28;20244;-79
2023/08/24 04:32:09;;;;;;;8.13;7.33;;;22.70;99.90;;;;;;10429041;28;20296;-79
2023/08/24 04:37:11;;;;;;;8.20;7.60;;;22.80;99.90;;;;;;10424065;28;20295;-79
2023/08/24 04:42:13;;;;;;;7.77;7.17;;;22.90;99.70;;;;;;10412298;28;20217;-80
2023/08/24 04:47:17;;;;;;;8.07;7.40;;;22.90;99.80;;;;;;10423201;28;20622;-78
2023/08/24 04:52:19;;;;;;;7.70;7.10;;;22.90;99.90;;;;;;10399220;28;20233;-77
2023/08/24 04:57:21;;;;;;;7.83;7.23;;;22.90;99.90;;;;;;10429592;28;20233;-78
2023/08/24 05:02:24;;;;;;;6.83;6.43;;;22.90;99.90;;;;;;10440499;28;20209;-79
2023/08/24 05:07:26;;;;;;;9.37;7.90;;;22.90;99.90;;;;;;10445262;28;20237;-79
2023/08/24 05:12:29;;;;;;;7.60;7.00;;;22.90;99.90;;;;;;10441922;28;20213;-79
2023/08/24 05:17:32;;;;;;;8.77;7.33;;;22.90;99.80;;;;;;10442418;28;21237;-79
2023/08/24 05:22:34;;;;;;;7.30;6.63;;;23.00;99.90;;;;;;10436289;28;20953;-77
2023/08/24 05:27:37;;;;;;;7.20;6.50;;;23.10;99.80;;;;;;10445492;28;20252;-79
2023/08/24 05:32:41;;;;;;;7.80;7.13;;;23.10;99.40;;;;;;10416617;28;20229;-79
2023/08/24 05:37:43;;;;;;;7.50;6.80;;;23.20;99.80;;;;;;10443926;28;20214;-79
2023/08/24 05:42:45;;;;;;;6.83;6.20;;;23.30;99.90;;;;;;10439922;28;20217;-79
2023/08/24 05:47:49;;;;;;;7.37;6.80;;;23.40;99.90;;;;;;10418100;28;20245;-79
2023/08/24 05:52:51;;;;;;;7.43;6.70;;;23.50;99.70;;;;;;10443093;28;20202;-79
2023/08/24 05:57:53;;;;;;;6.33;5.73;;;23.60;99.70;;;;;;10440474;28;20245;-79
2023/08/24 06:02:56;;;;;;;7.10;6.53;;;23.70;99.40;;;;;;10442768;28;20202;-79
2023/08/24 06:07:58;;;;;;;7.30;6.70;;;23.80;99.50;;;;;;10425039;28;20709;-79
2023/08/24 06:13:02;;;;;;;7.30;6.70;;;23.90;99.80;;;;;;10415571;28;20210;-79
2023/08/24 06:18:06;;;;;;;8.60;5.90;;;24.00;99.80;;;;;;10438375;28;20724;-78
2023/08/24 06:23:08;;;;;;;6.80;6.10;;;24.20;99.60;;;;;;10435916;28;20202;-79
2023/08/24 06:28:12;;;;;;;6.77;6.27;;;24.40;98.60;;;;;;10433788;28;20244;-79
2023/08/24 06:33:18;;;;;;;7.13;5.60;;;24.60;98.90;;;;;;10433720;28;20243;-79
2023/08/24 06:38:20;;;;;;;7.60;6.90;;;24.70;98.70;;;;;;10432608;28;20226;-79
2023/08/24 06:43:22;;;;;;;6.40;6.00;;;24.80;98.50;;;;;;10435788;28;20420;-79
2023/08/24 06:48:25;;;;;;;7.63;6.67;;;24.80;98.20;;;;;;10410168;28;21307;-78
2023/08/24 06:53:27;;;;;;;6.30;5.87;;;24.80;98.10;;;;;;10416149;28;20289;-78
2023/08/24 06:58:29;;;;;;;5.80;5.20;;;24.80;99.00;;;;;;10435505;28;20222;-79
2023/08/24 07:03:33;;;;;;;8.30;7.53;;;24.70;99.40;;;;;;10435517;28;20202;-79
2023/08/24 07:08:36;;;;;;;8.23;7.43;;;24.70;98.90;;;;;;10432884;28;20245;-78
2023/08/24 07:13:38;;;;;;;7.83;7.20;;;24.70;99.20;;;;;;10430711;28;20219;-79
2023/08/24 07:18:41;;;;;;;7.97;7.37;;;24.80;98.40;;;;;;10433182;28;20291;-78
2023/08/24 07:23:43;;;;;;;8.30;6.90;;;25.00;98.30;;;;;;10428187;28;20277;-79
2023/08/24 07:28:45;;;;;;;10.43;7.37;;;25.20;98.50;;;;;;10434723;28;20319;-79
2023/08/24 07:33:49;;;;;;;7.80;7.10;;;25.40;97.30;;;;;;10430547;28;20245;-77
2023/08/24 07:38:51;;;;;;;8.07;7.37;;;25.50;97.50;;;;;;10434887;28;20257;-78
2023/08/24 07:43:53;;;;;;;10.33;7.93;;;25.60;97.50;;;;;;10432388;28;20198;-78
2023/08/24 07:48:57;;;;;;;9.20;6.60;;;25.70;97.00;;;;;;10431677;28;20227;-78
2023/08/24 07:53:59;;;;;;;8.83;8.13;;;25.70;97.50;;;;;;10435053;28;20209;-78
2023/08/24 07:59:01;;;;;;;8.83;8.03;;;25.80;97.10;;;;;;10431734;28;20344;-78
2023/08/24 08:04:04;;;;;;;7.43;6.80;;;26.00;97.10;;;;;;10433981;28;20257;-78
2023/08/24 08:09:07;;;;;;;7.40;6.70;;;26.10;97.20;;;;;;10435827;28;20282;-79
2023/08/24 08:14:09;;;;;;;7.93;6.27;;;26.20;96.70;;;;;;10436216;28;20674;-79
2023/08/24 08:19:13;;;;;;;7.57;5.67;;;26.20;96.40;;;;;;10435452;28;20225;-78
2023/08/24 08:24:15;;;;;;;9.80;7.17;;;26.30;96.20;;;;;;10423908;28;20773;-79
2023/08/24 08:29:17;;;;;;;5.90;5.40;;;26.30;96.20;;;;;;10432434;28;20222;-79
2023/08/24 08:34:20;;;;;;;5.63;5.23;;;26.40;95.60;;;;;;10429359;28;20202;-80
2023/08/24 08:39:22;;;;;;;6.70;6.10;;;26.50;96.10;;;;;;10430723;28;20302;-79
2023/08/24 08:44:29;;;;;;;6.70;6.10;;;26.60;95.50;;;;;;10434504;28;20213;-79
2023/08/24 08:49:35;;;;;;;6.60;6.10;;;26.80;95.70;;;;;;10414285;28;20225;-79
2023/08/24 08:54:37;;;;;;;6.47;5.93;;;26.90;94.90;;;;;;10413461;28;20295;-79
2023/08/24 08:59:40;;;;;;;5.70;5.20;;;27.00;95.00;;;;;;10435987;28;20351;-79
2023/08/24 09:04:45;;;;;;;7.23;6.53;;;27.00;95.20;;;;;;10434547;28;20948;-79
2023/08/24 09:09:48;;;;;;;6.80;5.90;;;27.10;95.00;;;;;;10414184;28;20795;-79
2023/08/24 09:14:50;;;;;;;6.20;5.70;;;27.10;95.00;;;;;;10435319;28;20297;-79
2023/08/24 09:19:59;;;;;;;6.70;6.10;;;27.10;94.80;;;;;;10415842;28;20309;-79
2023/08/24 09:25:03;;;;;;;8.13;6.13;;;27.10;95.10;;;;;;10413955;28;20217;-79
2023/08/24 09:30:07;;;;;;;6.90;5.73;;;27.10;93.90;;;;;;10443797;28;20218;-79
2023/08/24 09:35:11;;;;;;;8.80;6.90;;;27.20;94.40;;;;;;10430929;28;20198;-79
2023/08/24 09:40:13;;;;;;;7.03;6.53;;;27.30;93.60;;;;;;10437779;28;20275;-79
2023/08/24 09:45:15;;;;;;;6.50;5.90;;;27.50;94.70;;;;;;10438026;28;20303;-79
2023/08/24 09:50:19;;;;;;;9.27;6.43;;;27.70;94.30;;;;;;10418861;28;20234;-77
2023/08/24 09:55:23;;;;;;;6.27;5.77;;;28.10;94.20;;;;;;10448350;28;20259;-79
2023/08/24 10:00:26;;;;;;;6.60;6.00;;;28.50;94.10;;;;;;10449356;28;20235;-80
2023/08/24 10:05:32;;;;;;;9.10;7.23;;;29.00;93.80;;;;;;10451919;28;20229;-79
2023/08/24 10:10:36;;;;;;;6.40;5.80;;;29.40;93.50;;;;;;10449054;28;20230;-79
2023/08/24 10:15:46;;;;;;;7.30;6.60;;;29.80;93.10;;;;;;10450719;28;20233;-79
2023/08/24 10:20:49;;;;;;;6.70;6.20;;;29.90;92.60;;;;;;10453626;28;20260;-79
2023/08/24 10:25:52;;;;;;;6.10;5.60;;;29.70;92.90;;;;;;10452942;28;20266;-80
2023/08/24 10:30:56;;;;;;;7.47;6.77;;;29.50;93.10;;;;;;10431386;28;20780;-79
2023/08/24 10:36:00;;;;;;;8.53;6.30;;;29.40;93.80;;;;;;10441308;28;20202;-79
2023/08/24 10:41:04;;;;;;;6.50;6.00;;;29.20;94.10;;;;;;10445563;28;20221;-79
2023/08/24 10:46:13;;;;;;;7.70;7.00;;;29.10;94.30;;;;;;10446481;28;20219;-79
2023/08/24 10:51:22;;;;;;;7.27;6.63;;;29.10;94.10;;;;;;10446366;28;20657;-79
2023/08/24 10:56:38;;;;;;;6.93;6.40;;;29.00;94.30;;;;;;10443813;28;20888;-79
2023/08/24 11:01:41;;;;;;;8.00;7.30;;;29.00;94.90;;;;;;10445253;28;20794;-78
2023/08/24 11:06:55;;;;;;;9.13;8.03;;;28.90;95.50;;;;;;10447503;28;20301;-80
2023/08/24 11:11:59;;;;;;;7.50;6.90;;;29.00;95.20;;;;;;10447192;28;20230;-79
2023/08/24 11:17:17;;;;;;;8.03;7.13;;;29.10;95.50;;;;;;10441238;28;20217;-78
2023/08/24 11:22:22;;;;;;;9.30;8.50;;;29.20;95.30;;;;;;10442816;28;20252;-79
2023/08/24 11:27:24;;;;;;;8.27;7.57;;;29.20;95.40;;;;;;10447829;28;20237;-79
2023/08/24 11:32:27;;;;;;;9.03;7.43;;;29.20;95.60;;;;;;10441205;28;20274;-79
2023/08/24 11:37:30;;;;;;;7.93;7.33;;;29.20;95.80;;;;;;10433548;28;20224;-80
2023/08/24 11:42:37;;;;;;;7.80;6.70;;;29.10;96.20;;;;;;10449768;28;20213;-80
2023/08/24 11:47:39;;;;;;;7.30;6.70;;;29.10;96.40;;;;;;10450013;28;20225;-79
2023/08/24 11:52:43;;;;;;;8.40;7.60;;;29.10;96.50;;;;;;10447696;28;20214;-79
2023/08/24 11:57:45;;;;;;;8.30;7.07;;;29.00;96.90;;;;;;10447453;28;20812;-79
2023/08/24 12:02:47;;;;;;;7.50;6.83;;;29.00;96.60;;;;;;10438627;28;20289;-79
2023/08/24 12:07:52;;;;;;;7.90;7.30;;;29.00;97.20;;;;;;10446689;28;20232;-79
2023/08/24 12:13:03;;;;;;;10.53;7.63;;;29.00;97.10;;;;;;10441130;28;20206;-79
2023/08/24 12:18:10;;;;;;;8.00;7.20;;;29.00;97.00;;;;;;10447152;28;20217;-79
2023/08/24 12:23:13;;;;;;;8.30;7.60;;;29.00;97.10;;;;;;10442040;28;20236;-79
2023/08/24 12:28:16;;;;;;;8.13;6.70;;;29.20;96.40;;;;;;10420753;28;20261;-79
2023/08/24 12:33:29;;;;;;;8.10;7.40;;;29.40;96.20;;;;;;10442363;28;20229;-79
2023/08/24 12:38:34;;;;;;;8.13;7.20;;;29.40;96.50;;;;;;10436433;28;20213;-80
2023/08/24 12:43:37;;;;;;;7.93;7.33;;;29.40;96.70;;;;;;10433142;28;20206;-80
2023/08/24 12:48:39;;;;;;;7.97;7.17;;;29.50;96.30;;;;;;10441389;28;20246;-79
2023/08/24 12:53:42;;;;;;;8.30;7.50;;;29.50;95.40;;;;;;10427338;28;20206;-79
2023/08/24 12:58:45;;;;;;;8.83;7.90;;;29.60;95.80;;;;;;10413197;28;20222;-80
2023/08/24 13:03:47;;;;;;;6.80;6.30;;;29.70;94.90;;;;;;10439992;28;20202;-79
2023/08/24 13:08:50;;;;;;;7.00;6.30;;;29.70;95.70;;;;;;10442978;28;20234;-79
2023/08/24 13:13:52;;;;;;;11.57;6.63;;;29.70;96.10;;;;;;10439620;28;20297;-80
2023/08/24 13:18:54;;;;;;;7.07;6.57;;;29.80;95.30;;;;;;10428586;28;20638;-80
2023/08/24 13:23:58;;;;;;;8.00;7.20;;;30.00;95.40;;;;;;10453804;28;20228;-79
2023/08/24 13:29:01;;;;;;;6.60;6.00;;;30.20;94.60;;;;;;10450675;28;20234;-81
2023/08/24 13:34:04;;;;;;;8.47;7.67;;;30.30;94.90;;;;;;10451846;28;20202;-79
2023/08/24 13:39:07;;;;;;;8.40;7.60;;;30.30;95.10;;;;;;10438452;28;20225;-80
2023/08/24 13:44:10;;;;;;;7.77;6.97;;;30.20;94.50;;;;;;10458658;28;20237;-79
2023/08/24 13:49:12;;;;;;;8.53;6.63;;;30.10;94.60;;;;;;10453498;28;20248;-79
2023/08/24 13:54:16;;;;;;;12.77;6.37;;;30.10;94.30;;;;;;10438427;28;20255;-80
2023/08/24 13:59:18;;;;;;;7.30;6.60;;;30.20;92.90;;;;;;10457658;28;20221;-80
2023/08/24 14:04:21;;;;;;;7.87;6.13;;;30.30;93.30;;;;;;10451694;28;20230;-80
2023/08/24 14:09:24;;;;;;;7.03;6.33;;;30.30;93.80;;;;;;10435221;28;20222;-80
2023/08/24 14:14:26;;;;;;;7.80;6.90;;;30.20;94.50;;;;;;10450156;28;20205;-79
2023/08/24 14:19:28;;;;;;;7.03;6.33;;;30.10;93.40;;;;;;10453511;28;20215;-79
2023/08/24 14:24:34;;;;;;;6.23;5.63;;;30.00;94.70;;;;;;10450864;28;20613;-80
2023/08/24 14:29:36;;;;;;;6.77;5.67;;;30.00;95.10;;;;;;10455599;28;20237;-81
2023/08/24 14:34:38;;;;;;;7.33;4.73;;;30.00;95.40;;;;;;10448261;28;20209;-81
2023/08/24 14:39:42;;;;;;;6.00;4.93;;;29.90;96.20;;;;;;10449288;28;20704;-81
2023/08/24 14:44:44;;;;;;;8.53;5.63;;;29.80;95.70;;;;;;10423691;28;20237;-79
2023/08/24 14:49:46;;;;;;;9.20;5.60;;;29.70;94.90;;;;;;10438090;28;20226;-80
2023/08/24 14:54:49;;;;;;;10.20;5.67;;;29.60;93.70;;;;;;10453576;28;20687;-80
2023/08/24 14:59:52;;;;;;;5.90;5.43;;;29.50;94.00;;;;;;10453458;28;20245;-82
2023/08/24 15:04:54;;;;;;;9.17;6.77;;;29.40;94.70;;;;;;10446290;28;20202;-79
2023/08/24 15:09:57;;;;;;;10.30;7.27;;;29.40;97.50;;;;;;10442031;28;20233;-81
2023/08/24 15:15:01;;;;;;;6.10;5.13;;;29.30;98.10;;;;;;10439664;28;20292;-79
2023/08/24 15:20:05;;;;;;;7.30;4.20;;;29.10;98.60;;;;;;10446013;28;20245;-80
2023/08/24 15:25:09;;;;;;;4.13;3.60;;;28.80;98.40;;;;;;10444544;28;20203;-80
2023/08/24 15:30:11;;;;;;;4.97;4.33;;;28.40;98.70;;;;;;10444590;28;20739;-79
2023/08/24 15:35:14;;;;;;;4.50;4.10;;;28.10;98.90;;;;;;10451233;28;20229;-81
2023/08/24 15:40:17;;;;;;;4.23;3.93;;;27.90;99.50;;;;;;10446917;28;20245;-80
2023/08/24 15:45:19;;;;;;;5.10;4.60;;;27.80;99.60;;;;;;10442602;28;20195;-80
2023/08/24 15:50:22;;;;;;;6.10;4.47;;;27.60;99.10;;;;;;10440412;28;20230;-79
2023/08/24 15:55:26;;;;;;;4.13;3.70;;;27.50;98.90;;;;;;10445830;28;20220;-79
2023/08/24 16:00:28;;;;;;;7.20;3.40;;;27.40;98.40;;;;;;10433499;28;20220;-80
2023/08/24 16:05:33;;;;;;;4.17;3.67;;;27.30;98.00;;;;;;10451870;28;20267;-80
2023/08/24 16:10:36;;;;;;;4.50;3.20;;;27.10;98.40;;;;;;10435313;28;20296;-79
2023/08/24 16:15:38;;;;;;;5.07;3.80;;;27.00;99.00;;;;;;10437256;28;20209;-79
2023/08/24 16:20:40;;;;;;;3.97;3.67;;;27.00;99.20;;;;;;10434824;28;20634;-78
2023/08/24 16:25:45;;;;;;;9.13;4.17;;;26.90;99.20;;;;;;10438675;28;20209;-78
2023/08/24 16:30:48;;;;;;;3.70;3.40;;;26.90;99.00;;;;;;10416922;28;20229;-79
2023/08/24 16:35:50;;;;;;;4.50;4.10;;;26.90;98.70;;;;;;10429773;28;20208;-78
2023/08/24 16:40:53;;;;;;;4.13;3.80;;;26.90;99.00;;;;;;10425532;28;20227;-77
2023/08/24 16:45:55;;;;;;;5.27;4.43;;;27.00;99.30;;;;;;10428346;28;20255;-78
2023/08/24 16:50:57;;;;;;;4.90;4.60;;;26.90;99.90;;;;;;10424985;28;20227;-78
2023/08/24 16:56:03;;;;;;;6.77;4.00;;;26.90;99.90;;;;;;10407875;28;20324;-77
2023/08/24 17:01:06;;;;;;;3.70;3.40;;;26.80;99.90;;;;;;10410212;28;20271;-79
2023/08/24 17:06:08;;;;;;;5.93;4.10;;;26.70;99.90;;;;;;10405447;28;20225;-77
2023/08/24 17:11:12;;;;;;;4.63;4.23;;;26.70;99.90;;;;;;10425294;28;20238;-78
2023/08/24 17:16:15;;;;;;;4.37;4.07;;;26.70;99.90;;;;;;10430824;28;20201;-79
2023/08/24 17:21:17;;;;;;;4.70;4.20;;;26.70;99.90;;;;;;10405606;28;20821;-79
2023/08/24 17:26:20;;;;;;;4.93;4.20;;;26.60;99.90;;;;;;10434902;28;20307;-76
2023/08/24 17:31:23;;;;;;;6.60;4.70;;;26.60;99.90;;;;;;10432309;28;20232;-79
2023/08/24 17:36:25;;;;;;;4.80;4.40;;;26.60;99.90;;;;;;10433629;28;20259;-78
2023/08/24 17:41:28;;;;;;;4.73;4.30;;;26.60;99.90;;;;;;10409138;28;20206;-79
2023/08/24 17:46:30;;;;;;;4.50;3.90;;;26.60;99.90;;;;;;10426648;28;20210;-78
2023/08/24 17:51:32;;;;;;;4.83;2.90;;;26.60;99.40;;;;;;10427730;28;20282;-80
2023/08/24 17:56:36;;;;;;;4.77;3.50;;;26.60;99.00;;;;;;10424660;28;20206;-79
2023/08/24 18:01:38;;;;;;;3.73;3.43;;;26.60;99.90;;;;;;10431263;28;20238;-79
2023/08/24 18:06:41;;;;;;;3.50;3.20;;;26.60;99.80;;;;;;10408238;28;20230;-80
2023/08/24 18:11:44;;;;;;;4.50;3.63;;;26.60;98.80;;;;;;10442881;28;20206;-79
2023/08/24 18:16:47;;;;;;;5.17;4.30;;;26.60;98.40;;;;;;10442145;28;20252;-80
2023/08/24 18:21:49;;;;;;;9.10;4.40;;;26.60;98.30;;;;;;10439107;28;20218;-79
2023/08/24 18:26:54;;;;;;;6.90;4.53;;;26.50;98.70;;;;;;10433571;28;20714;-79
2023/08/24 18:31:56;;;;;;;7.00;4.77;;;26.40;99.10;;;;;;10432873;28;20206;-80
2023/08/24 18:36:58;;;;;;;6.27;5.77;;;26.40;99.90;;;;;;10433032;28;20316;-79
2023/08/24 18:42:02;;;;;;;5.27;4.87;;;26.20;99.90;;;;;;10442753;28;20196;-79
2023/08/24 18:47:06;;;;;;;7.20;6.00;;;26.10;99.90;;;;;;10430239;28;20698;-79
2023/08/24 18:52:08;;;;;;;6.17;5.77;;;26.00;99.90;;;;;;10421949;28;20210;-79
2023/08/24 18:57:12;;;;;;;8.60;7.73;;;25.90;99.90;;;;;;10439104;28;20284;-79
2023/08/24 19:02:17;;;;;;;6.73;6.23;;;25.90;99.90;;;;;;10403120;28;21179;-79
2023/08/24 19:07:20;;;;;;;8.37;7.53;;;25.90;99.90;;;;;;10434348;28;20971;-79
2023/08/24 19:12:23;;;;;;;9.43;8.47;;;25.90;99.90;;;;;;10418166;28;20774;-79
2023/08/24 19:17:25;;;;;;;15.60;11.50;;;25.90;99.90;;;;;;10432235;28;20245;-79
2023/08/24 19:22:27;;;;;;;20.73;18.77;;;25.80;99.90;;;;;;10433193;28;20198;-82
2023/08/24 19:27:31;;;;;;;18.83;17.03;;;25.30;99.90;;;;;;10442463;28;20226;-81
2023/08/24 19:32:34;;;;;;;18.60;17.27;;;24.90;99.90;;;;;;10455481;28;20225;-80
2023/08/24 19:37:36;;;;;;;18.33;17.03;;;24.60;99.90;;;;;;10461313;28;20222;-81
2023/08/24 19:42:40;;;;;;;17.17;15.63;;;24.20;99.90;;;;;;10461395;28;20193;-81
2023/08/24 19:47:42;;;;;;;15.87;14.20;;;23.80;99.90;;;;;;10461776;28;20234;-80
2023/08/24 19:52:44;;;;;;;13.80;12.73;;;23.60;99.90;;;;;;10479726;28;20205;-80
2023/08/24 19:57:48;;;;;;;14.53;13.43;;;23.30;99.90;;;;;;10464082;28;20668;-80
2023/08/24 20:02:53;;;;;;;13.57;11.57;;;23.10;99.90;;;;;;10488174;28;20209;-80
2023/08/24 20:07:56;;;;;;;13.43;12.53;;;23.00;99.90;;;;;;10480043;28;20242;-79
2023/08/24 20:12:59;;;;;;;13.17;12.27;;;22.80;99.90;;;;;;10484941;28;20218;-80
2023/08/24 20:18:01;;;;;;;13.93;12.90;;;22.60;99.90;;;;;;10487327;28;20213;-79
2023/08/24 20:23:03;;;;;;;16.10;14.90;;;22.50;99.90;;;;;;10478567;28;20198;-80
2023/08/24 20:28:07;;;;;;;17.50;15.93;;;22.50;99.90;;;;;;10467722;28;20637;-80
2023/08/24 20:33:09;;;;;;;15.40;14.30;;;22.60;99.90;;;;;;10422193;28;20214;-82
2023/08/24 20:38:11;;;;;;;16.27;14.87;;;22.60;99.90;;;;;;10488885;28;20213;-82
2023/08/24 20:43:14;;;;;;;15.67;14.33;;;22.60;99.90;;;;;;10480962;28;20189;-81
2023/08/24 20:48:17;;;;;;;14.00;13.00;;;22.70;99.90;;;;;;10497800;28;20278;-82
2023/08/24 20:53:19;;;;;;;12.80;12.00;;;22.70;99.90;;;;;;10494341;28;20296;-81
2023/08/24 20:58:22;;;;;;;12.93;12.03;;;22.70;99.90;;;;;;10503811;28;20244;-81
2023/08/24 21:03:24;;;;;;;10.40;9.50;;;22.70;99.90;;;;;;10497487;28;20193;-81
2023/08/24 21:08:26;;;;;;;11.17;10.37;;;22.60;99.90;;;;;;10495147;28;20704;-79
2023/08/24 21:13:30;;;;;;;10.00;9.30;;;22.60;99.90;;;;;;10497751;28;20201;-81
2023/08/24 21:18:32;;;;;;;10.50;9.47;;;22.70;99.90;;;;;;10493951;28;20239;-81
2023/08/24 21:23:34;;;;;;;9.10;8.40;;;22.70;99.90;;;;;;10481209;28;20547;-82
2023/08/24 21:28:37;;;;;;;8.97;8.50;;;22.80;99.90;;;;;;10494589;28;20217;-80
2023/08/24 21:33:40;;;;;;;8.00;7.57;;;22.80;99.90;;;;;;10497041;28;20237;-81
2023/08/24 21:38:42;;;;;;;8.70;8.10;;;22.80;99.90;;;;;;10467341;28;20222;-81
2023/08/24 21:43:45;;;;;;;8.30;7.80;;;22.80;99.90;;;;;;10498058;28;20201;-80
2023/08/24 21:48:47;;;;;;;7.40;7.00;;;22.80;99.90;;;;;;10506932;28;20218;-81
2023/08/24 21:53:49;;;;;;;7.03;6.73;;;22.80;99.90;;;;;;10474536;28;20205;-80
2023/08/24 21:58:53;;;;;;;6.77;6.27;;;22.80;99.90;;;;;;10515451;28;20669;-82
2023/08/24 22:03:55;;;;;;;6.60;6.00;;;22.70;99.90;;;;;;10507547;28;20194;-81
2023/08/24 22:08:57;;;;;;;6.07;5.77;;;22.70;99.90;;;;;;10492747;28;20683;-81
2023/08/24 22:14:00;;;;;;;7.00;6.30;;;22.70;99.90;;;;;;10493844;28;20209;-81
2023/08/24 22:19:02;;;;;;;6.87;6.37;;;22.70;99.90;;;;;;10489044;28;20287;-81
2023/08/24 22:24:05;;;;;;;6.50;6.20;;;22.70;99.90;;;;;;10495091;28;20224;-81
2023/08/24 22:29:09;;;;;;;5.93;5.53;;;22.80;99.90;;;;;;10509949;28;20221;-81
2023/08/24 22:34:11;;;;;;;5.00;4.80;;;22.80;99.90;;;;;;10482880;28;20807;-81
2023/08/24 22:39:13;;;;;;;5.73;5.43;;;22.80;99.90;;;;;;10491424;28;20632;-80
2023/08/24 22:44:16;;;;;;;5.37;5.07;;;22.90;99.90;;;;;;10513661;28;20204;-82
2023/08/24 22:49:18;;;;;;;5.37;4.97;;;22.90;99.90;;;;;;10485085;28;20225;-81
2023/08/24 22:54:20;;;;;;;5.00;4.70;;;22.90;99.90;;;;;;10468657;28;20193;-80
2023/08/24 22:59:24;;;;;;;4.50;4.30;;;22.90;99.90;;;;;;10513859;28;20296;-80
2023/08/24 23:04:26;;;;;;;5.40;5.00;;;22.90;99.90;;;;;;10486101;28;20202;-81
2023/08/24 23:09:28;;;;;;;3.87;3.67;;;23.00;99.90;;;;;;10515001;22;20789;-84
2023/08/24 23:14:33;;;;;;;5.03;4.67;;;22.90;99.90;;;;;;10512329;28;20197;-84
2023/08/24 23:19:37;;;;;;;4.87;3.70;;;23.00;99.90;;;;;;10482256;28;20588;-84
2023/08/24 23:24:39;;;;;;;3.67;3.47;;;23.00;99.90;;;;;;10511696;28;20673;-83
2023/08/24 23:29:42;;;;;;;4.13;3.83;;;23.00;99.90;;;;;;10483717;28;20229;-83
2023/08/24 23:34:45;;;;;;;3.90;3.70;;;23.00;99.90;;;;;;10507958;28;20612;-84
2023/08/24 23:39:47;;;;;;;4.20;3.90;;;23.00;99.90;;;;;;10504686;28;20216;-83
2023/08/24 23:44:51;;;;;;;7.40;4.10;;;23.10;99.90;;;;;;10497595;28;20205;-83
2023/08/24 23:49:53;;;;;;;4.03;3.73;;;23.10;99.90;;;;;;10495460;28;20229;-83
2023/08/24 23:54:56;;;;;;;3.70;3.50;;;23.10;99.90;;;;;;10507531;28;20212;-83
2023/08/24 23:59:59;;;;;;;3.70;3.47;;;23.20;99.90;;;;;;10510510;28;20310;-84
